Time;durP1;ratioP1;P1;durP2;ratioP2;P2;SDS_P1;SDS_P2;PMS_P1;PMS_P2;Temp;Humidity;BMP_temperature;BMP_pressure;BME280_temperature;BME280_humidity;BME280_pressure;Samples;Min_cycle;Max_cycle;Signal;HPM_P1;HPM_P2
2022/07/19 00:00:27;;;;;;;8.05;3.95;;;24.70;77.80;;;;;;5092600;28;20140;-79
2022/07/19 00:02:53;;;;;;;4.35;3.95;;;24.60;77.90;;;;;;5093073;28;20382;-80
2022/07/19 00:05:20;;;;;;;5.00;3.97;;;24.60;77.80;;;;;;5092418;28;20057;-78
2022/07/19 00:07:46;;;;;;;4.95;4.47;;;24.60;78.00;;;;;;5092900;28;20019;-79
2022/07/19 00:10:14;;;;;;;4.47;3.97;;;24.50;78.00;;;;;;5092520;28;20055;-79
2022/07/19 00:12:40;;;;;;;4.57;3.83;;;24.50;78.20;;;;;;5092333;28;20056;-79
2022/07/19 00:15:08;;;;;;;6.47;4.18;;;24.40;78.30;;;;;;5092550;28;20024;-80
2022/07/19 00:17:34;;;;;;;6.68;4.32;;;24.40;78.00;;;;;;5084720;28;20475;-80
2022/07/19 00:20:00;;;;;;;7.13;5.22;;;24.40;77.80;;;;;;5071827;28;20025;-79
2022/07/19 00:22:26;;;;;;;5.63;5.13;;;24.40;77.70;;;;;;5076007;28;20043;-79
2022/07/19 00:24:55;;;;;;;6.65;5.03;;;24.40;78.00;;;;;;5088174;28;20471;-78
2022/07/19 00:27:21;;;;;;;6.47;5.88;;;24.60;78.10;;;;;;5077671;28;20099;-78
2022/07/19 00:29:46;;;;;;;6.18;5.40;;;24.40;77.80;;;;;;5092648;28;20138;-80
2022/07/19 00:32:12;;;;;;;7.13;6.47;;;24.30;77.70;;;;;;5092591;28;20357;-78
2022/07/19 00:34:38;;;;;;;6.68;6.10;;;24.30;77.80;;;;;;5086962;28;20078;-79
2022/07/19 00:37:03;;;;;;;6.70;6.00;;;24.30;78.10;;;;;;5083034;28;20489;-78
2022/07/19 00:39:29;;;;;;;5.95;5.43;;;24.30;78.60;;;;;;5095372;28;20506;-79
2022/07/19 00:41:54;;;;;;;7.15;6.45;;;24.30;79.20;;;;;;5096025;28;20020;-79
2022/07/19 00:44:21;;;;;;;6.22;5.60;;;24.20;79.90;;;;;;5096531;28;20054;-79
2022/07/19 00:46:47;;;;;;;6.40;5.90;;;24.20;80.50;;;;;;5096774;28;20463;-78
2022/07/19 00:49:13;;;;;;;6.35;5.78;;;24.20;81.20;;;;;;5096263;28;20202;-79
2022/07/19 00:51:42;;;;;;;6.70;5.88;;;24.10;81.60;;;;;;5092099;28;20029;-78
2022/07/19 00:54:10;;;;;;;7.13;6.15;;;24.10;81.80;;;;;;5095374;28;20047;-80
2022/07/19 00:56:38;;;;;;;6.30;5.70;;;24.00;81.80;;;;;;5107881;28;20364;-78
2022/07/19 00:59:04;;;;;;;6.55;5.93;;;24.10;81.80;;;;;;5096262;28;20075;-78
2022/07/19 01:01:31;;;;;;;6.53;5.93;;;24.00;81.90;;;;;;5095904;28;20040;-80
2022/07/19 01:03:57;;;;;;;7.20;5.63;;;24.00;82.10;;;;;;5096388;28;20038;-80
2022/07/19 01:06:23;;;;;;;7.97;7.18;;;23.90;82.30;;;;;;5096391;28;20038;-80
2022/07/19 01:08:49;;;;;;;9.80;6.90;;;23.90;82.10;;;;;;5089323;28;20411;-80
2022/07/19 01:11:14;;;;;;;16.58;7.35;;;23.90;82.10;;;;;;5088291;28;20081;-80
2022/07/19 01:13:40;;;;;;;10.75;6.35;;;23.80;82.20;;;;;;5095973;28;20496;-79
2022/07/19 01:16:06;;;;;;;9.02;6.85;;;23.80;82.60;;;;;;5095512;28;20516;-79
2022/07/19 01:18:32;;;;;;;7.72;6.88;;;23.70;82.60;;;;;;5095967;28;20471;-79
2022/07/19 01:20:58;;;;;;;8.73;6.93;;;23.70;82.50;;;;;;5096257;28;20085;-79
2022/07/19 01:23:24;;;;;;;9.30;7.43;;;23.70;82.90;;;;;;5096750;28;20089;-79
2022/07/19 01:25:50;;;;;;;9.85;7.93;;;23.60;83.50;;;;;;5090852;28;20025;-80
2022/07/19 01:28:16;;;;;;;9.23;7.18;;;23.60;83.60;;;;;;5087142;28;20357;-80
2022/07/19 01:30:42;;;;;;;9.48;8.00;;;23.60;83.90;;;;;;5095892;28;20024;-80
2022/07/19 01:33:07;;;;;;;12.95;9.05;;;23.60;83.60;;;;;;5096558;28;20028;-78
2022/07/19 01:35:33;;;;;;;17.08;9.10;;;23.50;84.30;;;;;;5096968;28;20039;-80
2022/07/19 01:37:58;;;;;;;14.48;10.73;;;23.50;83.90;;;;;;5095805;28;20032;-80
2022/07/19 01:40:25;;;;;;;10.30;9.23;;;23.50;83.90;;;;;;5096572;28;20016;-79
2022/07/19 01:42:51;;;;;;;14.43;10.38;;;23.50;84.00;;;;;;5096321;28;20024;-79
2022/07/19 01:45:18;;;;;;;11.65;10.43;;;23.50;84.00;;;;;;5097080;28;20041;-80
2022/07/19 01:47:44;;;;;;;11.98;10.00;;;23.50;84.00;;;;;;5096675;28;20028;-80
2022/07/19 01:50:13;;;;;;;14.07;9.80;;;23.40;84.20;;;;;;5094720;28;20020;-78
2022/07/19 01:52:39;;;;;;;11.00;8.18;;;23.40;84.40;;;;;;5096198;28;20025;-80
2022/07/19 01:55:06;;;;;;;12.63;9.68;;;23.40;84.50;;;;;;5095238;28;20346;-78
2022/07/19 01:57:32;;;;;;;9.45;8.48;;;23.40;84.40;;;;;;5094673;28;20102;-79
2022/07/19 01:59:58;;;;;;;9.60;8.60;;;23.40;83.80;;;;;;5095263;28;20024;-78
2022/07/19 02:02:23;;;;;;;9.82;8.90;;;23.30;83.70;;;;;;5095671;28;20034;-78
2022/07/19 02:04:49;;;;;;;13.48;9.70;;;23.40;84.00;;;;;;5094583;28;20028;-79
2022/07/19 02:07:15;;;;;;;13.13;9.13;;;23.30;84.20;;;;;;5096760;28;20024;-78
2022/07/19 02:09:40;;;;;;;12.02;9.10;;;23.30;84.40;;;;;;5099916;28;20051;-80
2022/07/19 02:12:06;;;;;;;10.52;9.07;;;23.30;84.60;;;;;;5099521;28;20020;-79
2022/07/19 02:14:32;;;;;;;16.25;9.95;;;23.30;84.70;;;;;;5095897;28;20106;-81
2022/07/19 02:16:57;;;;;;;10.05;9.02;;;23.20;84.60;;;;;;5095654;28;20020;-78
2022/07/19 02:19:23;;;;;;;12.05;9.60;;;23.20;84.80;;;;;;5096292;28;20483;-80
2022/07/19 02:21:48;;;;;;;10.35;9.02;;;23.20;85.00;;;;;;5099636;28;20471;-79
2022/07/19 02:24:14;;;;;;;11.45;10.35;;;23.20;85.40;;;;;;5101210;28;20528;-80
2022/07/19 02:26:40;;;;;;;11.82;9.93;;;23.20;86.00;;;;;;5085194;28;20027;-80
2022/07/19 02:29:06;;;;;;;19.27;10.65;;;23.20;86.30;;;;;;5092499;28;20020;-80
2022/07/19 02:31:32;;;;;;;13.75;9.98;;;23.10;86.30;;;;;;5095228;28;20028;-79
2022/07/19 02:33:58;;;;;;;12.60;10.48;;;23.10;86.20;;;;;;5093907;28;20468;-79
2022/07/19 02:36:23;;;;;;;18.85;13.00;;;23.10;86.10;;;;;;5095374;28;20035;-79
2022/07/19 02:38:49;;;;;;;14.27;11.68;;;23.00;86.10;;;;;;5095254;28;20040;-80
2022/07/19 02:41:15;;;;;;;14.00;11.95;;;22.90;86.20;;;;;;5096716;28;20024;-80
2022/07/19 02:43:40;;;;;;;12.77;11.15;;;22.80;86.40;;;;;;5106265;28;20083;-79
2022/07/19 02:46:06;;;;;;;11.50;10.25;;;22.90;86.80;;;;;;5102653;28;20020;-81
2022/07/19 02:48:32;;;;;;;15.05;11.85;;;22.80;86.80;;;;;;5094350;28;20028;-80
2022/07/19 02:50:58;;;;;;;14.43;12.93;;;22.80;86.80;;;;;;5093615;28;20020;-79
2022/07/19 02:53:24;;;;;;;14.07;12.75;;;22.80;86.90;;;;;;5096734;28;20063;-80
2022/07/19 02:55:50;;;;;;;11.15;10.15;;;22.70;87.10;;;;;;5093981;28;20060;-80
2022/07/19 02:58:15;;;;;;;14.75;11.27;;;22.70;87.50;;;;;;5094058;28;20024;-80
2022/07/19 03:00:41;;;;;;;12.60;11.38;;;22.70;87.70;;;;;;5093563;28;20447;-81
2022/07/19 03:05:51;;;;;;;13.38;11.80;;;22.70;87.50;;;;;;5094382;28;20089;-78
2022/07/19 03:08:17;;;;;;;13.43;11.70;;;22.60;87.40;;;;;;5093075;28;20032;-80
2022/07/19 03:10:43;;;;;;;15.10;10.90;;;22.70;87.30;;;;;;5093835;28;20056;-80
2022/07/19 03:13:09;;;;;;;14.07;10.82;;;22.70;87.40;;;;;;5093717;28;20111;-79
2022/07/19 03:15:35;;;;;;;15.02;12.02;;;22.60;87.80;;;;;;5093375;28;20051;-80
2022/07/19 03:18:02;;;;;;;15.25;11.45;;;22.60;88.20;;;;;;5093100;28;20036;-79
2022/07/19 03:20:27;;;;;;;15.45;12.77;;;22.60;88.30;;;;;;5093793;28;20361;-79
2022/07/19 03:22:53;;;;;;;14.88;11.43;;;22.60;88.00;;;;;;5092976;28;20035;-79
2022/07/19 03:25:18;;;;;;;13.18;11.07;;;22.60;88.00;;;;;;5093603;28;20047;-79
2022/07/19 03:27:44;;;;;;;11.73;10.55;;;22.50;88.10;;;;;;5080715;28;20027;-80
2022/07/19 03:30:10;;;;;;;12.13;10.95;;;22.50;88.10;;;;;;5093245;28;20028;-79
2022/07/19 03:32:35;;;;;;;17.08;11.50;;;22.50;88.10;;;;;;5093691;28;20024;-79
2022/07/19 03:35:01;;;;;;;13.38;10.93;;;22.50;88.10;;;;;;5093302;28;20032;-80
2022/07/19 03:37:26;;;;;;;20.08;13.45;;;22.40;88.40;;;;;;5092449;28;20395;-79
2022/07/19 03:39:52;;;;;;;11.23;10.13;;;22.40;88.60;;;;;;5093497;28;20027;-80
2022/07/19 03:42:17;;;;;;;11.32;10.05;;;22.30;88.80;;;;;;5093461;28;20115;-78
2022/07/19 03:44:43;;;;;;;16.00;11.27;;;22.40;89.00;;;;;;5092875;28;20089;-78
2022/07/19 03:47:09;;;;;;;14.95;12.52;;;22.30;88.70;;;;;;5093249;28;20532;-79
2022/07/19 03:49:34;;;;;;;14.13;11.43;;;22.30;88.70;;;;;;5092735;28;20022;-78
2022/07/19 03:52:00;;;;;;;12.88;10.85;;;22.30;88.90;;;;;;5092002;28;20036;-79
2022/07/19 03:54:25;;;;;;;12.02;10.85;;;22.30;89.00;;;;;;5092809;28;20050;-79
2022/07/19 03:56:51;;;;;;;11.60;10.40;;;22.30;89.10;;;;;;5092019;28;20020;-79
2022/07/19 03:59:17;;;;;;;12.65;11.38;;;22.30;89.20;;;;;;5092856;28;20468;-79
2022/07/19 04:01:43;;;;;;;11.23;9.93;;;22.30;89.90;;;;;;5093049;28;20099;-79
2022/07/19 04:04:08;;;;;;;10.43;9.43;;;22.30;89.40;;;;;;5092290;28;20024;-79
2022/07/19 04:06:34;;;;;;;17.95;9.68;;;22.30;89.50;;;;;;5092768;28;20016;-78
2022/07/19 04:09:00;;;;;;;12.27;10.38;;;22.30;89.40;;;;;;5092487;28;20024;-79
2022/07/19 04:11:25;;;;;;;10.82;9.13;;;22.30;89.40;;;;;;5092221;28;20040;-80
2022/07/19 04:13:51;;;;;;;10.40;9.20;;;22.30;89.50;;;;;;5091770;28;20024;-78
2022/07/19 04:16:16;;;;;;;11.05;9.95;;;22.30;89.60;;;;;;5092486;28;20024;-79
2022/07/19 04:18:42;;;;;;;10.98;9.52;;;22.20;89.10;;;;;;5092724;28;20028;-78
2022/07/19 04:21:08;;;;;;;11.10;9.95;;;22.30;88.90;;;;;;5092350;28;20573;-78
2022/07/19 04:23:33;;;;;;;10.90;8.93;;;22.30;88.80;;;;;;5092507;28;20028;-78
2022/07/19 04:25:59;;;;;;;9.10;8.20;;;22.20;88.90;;;;;;5085558;28;20021;-79
2022/07/19 04:28:25;;;;;;;9.57;8.07;;;22.30;89.00;;;;;;5086509;28;20016;-79
2022/07/19 04:30:50;;;;;;;8.90;8.07;;;22.30;88.80;;;;;;5094870;28;20468;-79
2022/07/19 04:33:18;;;;;;;12.25;8.32;;;22.30;88.80;;;;;;5108898;28;20085;-78
2022/07/19 04:35:44;;;;;;;12.80;9.35;;;22.30;88.80;;;;;;5093219;28;20032;-80
2022/07/19 04:38:10;;;;;;;10.25;9.18;;;22.30;88.90;;;;;;5092478;28;20024;-80
2022/07/19 04:40:35;;;;;;;17.13;9.75;;;22.40;89.00;;;;;;5092538;28;20467;-79
2022/07/19 04:43:01;;;;;;;11.45;8.73;;;22.40;89.20;;;;;;5092414;28;20099;-78
2022/07/19 04:45:27;;;;;;;9.70;8.48;;;22.40;89.40;;;;;;5093063;28;20031;-79
2022/07/19 04:47:53;;;;;;;10.95;8.60;;;22.40;89.40;;;;;;5092504;28;20020;-80
2022/07/19 04:50:19;;;;;;;8.75;7.93;;;22.50;89.70;;;;;;5095623;28;20031;-78
2022/07/19 04:52:45;;;;;;;9.32;8.43;;;22.50;89.90;;;;;;5097125;28;20024;-77
2022/07/19 04:55:10;;;;;;;10.95;9.57;;;22.50;89.80;;;;;;5094665;28;20030;-79
2022/07/19 04:57:36;;;;;;;9.57;8.05;;;22.60;89.70;;;;;;5092811;28;20078;-80
2022/07/19 05:00:06;;;;;;;10.27;9.38;;;22.60;89.60;;;;;;5093811;28;20372;-78
2022/07/19 05:02:31;;;;;;;11.20;9.60;;;22.60;89.60;;;;;;5093496;28;20055;-79
2022/07/19 05:04:57;;;;;;;11.23;9.70;;;22.70;89.00;;;;;;5093711;28;20032;-79
2022/07/19 05:07:23;;;;;;;10.07;9.07;;;22.80;88.70;;;;;;5086455;28;20028;-79
2022/07/19 05:09:48;;;;;;;9.57;8.68;;;22.80;88.60;;;;;;5092210;28;20036;-79
2022/07/19 05:12:15;;;;;;;9.48;8.35;;;22.90;88.60;;;;;;5093642;28;20386;-79
2022/07/19 05:14:40;;;;;;;9.98;8.98;;;23.00;88.60;;;;;;5092645;28;20039;-79
2022/07/19 05:17:06;;;;;;;11.20;10.00;;;23.10;88.50;;;;;;5093715;28;20028;-78
2022/07/19 05:19:32;;;;;;;13.60;9.45;;;23.10;88.30;;;;;;5093944;28;20055;-78
2022/07/19 05:21:57;;;;;;;11.57;9.65;;;23.20;88.00;;;;;;5092696;28;20039;-79
2022/07/19 05:24:25;;;;;;;13.98;9.55;;;23.20;87.50;;;;;;5083523;28;20109;-80
2022/07/19 05:26:51;;;;;;;10.40;9.32;;;23.30;87.20;;;;;;5080855;28;20096;-79
2022/07/19 05:29:17;;;;;;;10.43;9.18;;;23.30;86.90;;;;;;5095698;28;20047;-80
2022/07/19 05:31:42;;;;;;;10.02;8.43;;;23.40;87.00;;;;;;5096909;28;20107;-79
2022/07/19 05:34:08;;;;;;;10.68;9.07;;;23.40;86.60;;;;;;5096369;28;20020;-78
2022/07/19 05:36:33;;;;;;;9.40;8.27;;;23.50;86.20;;;;;;5095880;28;20028;-79
2022/07/19 05:38:59;;;;;;;15.70;9.57;;;23.50;86.10;;;;;;5095466;28;20424;-78
2022/07/19 05:41:25;;;;;;;13.52;8.32;;;23.60;85.90;;;;;;5096431;28;20073;-79
2022/07/19 05:43:51;;;;;;;11.00;9.90;;;23.70;85.80;;;;;;5095775;28;20024;-79
2022/07/19 05:46:17;;;;;;;14.80;10.07;;;23.70;85.60;;;;;;5095888;28;20077;-77
2022/07/19 05:48:43;;;;;;;10.88;9.77;;;23.80;85.50;;;;;;5095443;28;20114;-79
2022/07/19 05:51:09;;;;;;;10.25;8.20;;;23.80;85.60;;;;;;5089607;28;20078;-78
2022/07/19 05:53:36;;;;;;;13.48;10.43;;;23.90;85.40;;;;;;5086439;28;20491;-79
2022/07/19 05:56:02;;;;;;;16.02;9.77;;;24.00;85.50;;;;;;5074118;28;20480;-80
2022/07/19 05:58:27;;;;;;;16.25;9.15;;;24.00;85.10;;;;;;5073236;28;20487;-79
2022/07/19 06:03:37;;;;;;;17.88;11.57;;;24.10;84.60;;;;;;5084714;28;20495;-80
2022/07/19 06:06:02;;;;;;;16.27;10.20;;;24.20;84.40;;;;;;5076213;28;20040;-81
2022/07/19 06:08:28;;;;;;;11.77;9.88;;;24.20;84.60;;;;;;5077421;28;20486;-79
2022/07/19 06:10:53;;;;;;;19.27;10.18;;;24.30;84.70;;;;;;5073222;28;20074;-80
2022/07/19 06:13:19;;;;;;;19.35;11.13;;;24.30;84.70;;;;;;5082306;28;20493;-80
2022/07/19 06:15:45;;;;;;;13.35;11.45;;;24.30;84.60;;;;;;5075857;28;20170;-80
2022/07/19 06:18:10;;;;;;;17.00;9.95;;;24.40;84.80;;;;;;5079913;28;20063;-79
2022/07/19 06:20:36;;;;;;;16.15;10.30;;;24.40;85.10;;;;;;5085633;28;20069;-78
2022/07/19 06:23:02;;;;;;;13.60;10.77;;;24.40;85.30;;;;;;5080138;28;20075;-81
2022/07/19 06:25:27;;;;;;;13.20;10.93;;;24.50;85.60;;;;;;5076549;28;20070;-80
2022/07/19 06:27:53;;;;;;;14.20;11.45;;;24.50;85.80;;;;;;5076283;28;20190;-80
2022/07/19 06:30:18;;;;;;;13.10;9.68;;;24.60;85.60;;;;;;5073108;28;20063;-80
2022/07/19 06:32:44;;;;;;;17.33;11.52;;;24.60;85.70;;;;;;5075725;28;20031;-79
2022/07/19 06:35:10;;;;;;;14.02;10.52;;;24.80;85.80;;;;;;5075868;28;20082;-80
2022/07/19 06:37:36;;;;;;;18.17;13.75;;;24.80;85.80;;;;;;5072294;28;20023;-80
2022/07/19 06:40:01;;;;;;;13.98;11.50;;;24.80;85.80;;;;;;5073456;28;20020;-79
2022/07/19 06:42:27;;;;;;;22.85;12.77;;;24.90;85.80;;;;;;5075904;28;20020;-80
2022/07/19 06:44:53;;;;;;;13.32;11.52;;;24.90;85.80;;;;;;5073198;28;20099;-80
2022/07/19 06:47:18;;;;;;;12.48;10.80;;;24.90;85.90;;;;;;5075272;28;20457;-79
2022/07/19 06:49:44;;;;;;;20.00;14.07;;;25.00;86.00;;;;;;5071996;28;20077;-79
2022/07/19 06:52:09;;;;;;;18.70;11.65;;;25.00;86.50;;;;;;5071733;28;20043;-78
2022/07/19 06:54:35;;;;;;;18.63;12.57;;;25.10;86.20;;;;;;5071266;28;20016;-79
2022/07/19 06:57:01;;;;;;;15.00;12.23;;;25.10;86.80;;;;;;5072475;28;20071;-80
2022/07/19 06:59:26;;;;;;;19.42;12.02;;;25.20;86.40;;;;;;5072702;28;20024;-79
2022/07/19 07:01:52;;;;;;;13.23;10.77;;;25.20;86.40;;;;;;5075106;28;20432;-80
2022/07/19 07:04:18;;;;;;;17.85;12.95;;;25.30;86.00;;;;;;5073249;28;20052;-80
2022/07/19 07:06:44;;;;;;;18.13;12.27;;;25.30;85.70;;;;;;5074956;28;20023;-80
2022/07/19 07:09:10;;;;;;;16.15;10.40;;;25.30;85.30;;;;;;5081399;28;20052;-79
2022/07/19 07:11:35;;;;;;;14.88;11.60;;;25.40;85.00;;;;;;5083648;28;20020;-79
2022/07/19 07:14:01;;;;;;;13.02;10.70;;;25.40;85.00;;;;;;5071812;28;20774;-79
2022/07/19 07:16:27;;;;;;;16.50;10.45;;;25.50;84.90;;;;;;5075721;28;20066;-79
2022/07/19 07:18:52;;;;;;;18.23;11.73;;;25.60;84.90;;;;;;5075321;28;20032;-80
2022/07/19 07:21:18;;;;;;;19.10;12.05;;;25.70;84.40;;;;;;5072126;28;20518;-79
2022/07/19 07:23:44;;;;;;;17.70;11.13;;;25.70;84.90;;;;;;5072897;28;20040;-81
2022/07/19 07:26:09;;;;;;;11.75;8.90;;;25.80;85.40;;;;;;5072354;28;20044;-80
2022/07/19 07:28:35;;;;;;;9.05;7.70;;;25.90;85.90;;;;;;5072656;28;20028;-79
2022/07/19 07:31:01;;;;;;;13.77;8.48;;;25.90;85.80;;;;;;5073690;28;20115;-79
2022/07/19 07:33:26;;;;;;;21.10;13.77;;;26.00;85.90;;;;;;5078856;28;20024;-80
2022/07/19 07:35:52;;;;;;;14.98;10.48;;;26.10;85.10;;;;;;5078755;28;20020;-78
2022/07/19 07:38:17;;;;;;;13.00;10.30;;;26.20;85.00;;;;;;5078384;28;20032;-78
2022/07/19 07:40:43;;;;;;;14.90;10.48;;;26.20;84.90;;;;;;5073587;28;20533;-79
2022/07/19 07:43:09;;;;;;;14.15;10.80;;;26.30;84.80;;;;;;5072259;28;20028;-79
2022/07/19 07:45:34;;;;;;;17.88;12.95;;;26.40;85.30;;;;;;5076212;28;20028;-80
2022/07/19 07:48:00;;;;;;;14.35;11.40;;;26.40;84.50;;;;;;5076128;28;20020;-80
2022/07/19 07:50:26;;;;;;;19.80;14.15;;;26.50;84.40;;;;;;5076803;28;20095;-79
2022/07/19 07:52:52;;;;;;;17.75;12.55;;;26.60;83.90;;;;;;5077541;28;20025;-80
2022/07/19 07:55:17;;;;;;;14.57;11.02;;;26.60;83.70;;;;;;5074667;28;20055;-81
2022/07/19 07:57:43;;;;;;;21.27;12.55;;;26.70;84.10;;;;;;5072238;28;20028;-80
2022/07/19 08:00:12;;;;;;;16.35;11.05;;;26.80;85.00;;;;;;5073578;28;20115;-80
2022/07/19 08:02:39;;;;;;;22.20;11.30;;;26.80;84.50;;;;;;5075909;28;20025;-76
2022/07/19 08:05:05;;;;;;;12.23;10.32;;;26.90;84.60;;;;;;5071567;28;20107;-76
2022/07/19 08:07:31;;;;;;;17.15;10.73;;;26.90;84.40;;;;;;5075294;28;21266;-79
2022/07/19 08:09:59;;;;;;;14.65;11.98;;;27.00;84.70;;;;;;5098306;28;20051;-78
2022/07/19 08:12:25;;;;;;;12.32;9.20;;;27.10;83.90;;;;;;5089629;28;20035;-79
2022/07/19 08:14:51;;;;;;;18.20;10.50;;;27.20;82.90;;;;;;5096194;28;20035;-78
2022/07/19 08:17:16;;;;;;;14.95;10.10;;;27.20;82.40;;;;;;5103242;28;20084;-77
2022/07/19 08:19:42;;;;;;;16.05;10.30;;;27.30;82.80;;;;;;5094054;28;20040;-80
2022/07/19 08:22:07;;;;;;;22.80;13.27;;;27.50;82.20;;;;;;5107094;28;20035;-76
2022/07/19 08:24:33;;;;;;;19.55;10.18;;;27.60;80.30;;;;;;5096295;28;20020;-79
2022/07/19 08:26:59;;;;;;;11.77;10.38;;;27.70;80.40;;;;;;5095279;28;20106;-76
2022/07/19 08:29:24;;;;;;;16.27;10.82;;;27.70;80.20;;;;;;5075843;28;20044;-78
2022/07/19 08:31:50;;;;;;;20.38;10.80;;;27.80;79.60;;;;;;5075609;28;20016;-78
2022/07/19 08:34:15;;;;;;;19.40;10.38;;;27.90;79.20;;;;;;5083528;28;20056;-79
2022/07/19 08:36:41;;;;;;;18.83;9.02;;;28.00;78.80;;;;;;5098439;28;20036;-80
2022/07/19 08:39:07;;;;;;;20.27;8.57;;;28.10;78.70;;;;;;5093059;28;20285;-76
2022/07/19 08:41:34;;;;;;;18.55;9.32;;;28.20;78.60;;;;;;5086122;28;20472;-81
2022/07/19 08:44:02;;;;;;;14.20;8.88;;;28.20;80.00;;;;;;5089287;28;20039;-78
2022/07/19 08:46:28;;;;;;;17.60;9.77;;;28.30;79.70;;;;;;5090415;28;20107;-79
2022/07/19 08:48:54;;;;;;;10.40;7.78;;;28.40;79.10;;;;;;5094972;28;20126;-75
2022/07/19 08:51:21;;;;;;;11.38;8.38;;;28.50;78.60;;;;;;5096966;28;20066;-74
2022/07/19 08:53:49;;;;;;;11.52;6.85;;;28.60;79.50;;;;;;5088480;28;20464;-76
2022/07/19 08:58:59;;;;;;;10.38;7.22;;;28.80;78.20;;;;;;5088659;28;20466;-76
2022/07/19 09:01:24;;;;;;;20.05;8.10;;;28.80;77.80;;;;;;5093463;28;20052;-77
2022/07/19 09:04:08;;;;;;;10.45;7.10;;;28.80;78.00;;;;;;5082675;28;20111;-78
2022/07/19 09:06:43;;;;;;;14.23;7.72;;;28.90;77.90;;;;;;5086033;28;20718;-74
2022/07/19 09:09:09;;;;;;;14.18;6.35;;;29.00;76.90;;;;;;5084457;28;20068;-74
2022/07/19 09:11:38;;;;;;;10.65;6.20;;;29.00;76.90;;;;;;5103276;28;20036;-74
2022/07/19 09:14:12;;;;;;;9.98;5.65;;;29.10;77.20;;;;;;5089681;28;20029;-75
2022/07/19 09:16:48;;;;;;;9.48;6.15;;;29.20;77.50;;;;;;5097718;28;20027;-73
2022/07/19 09:19:13;;;;;;;13.63;6.60;;;29.20;77.30;;;;;;5102836;28;20058;-75
2022/07/19 09:22:01;;;;;;;8.02;5.35;;;29.30;77.40;;;;;;5106673;28;20078;-74
2022/07/19 09:24:28;;;;;;;5.80;5.20;;;29.50;76.70;;;;;;5093533;28;20102;-74
2022/07/19 09:27:02;;;;;;;8.52;4.93;;;29.60;76.10;;;;;;5086433;28;20028;-73
2022/07/19 09:29:29;;;;;;;7.70;4.57;;;29.70;75.90;;;;;;5088023;28;20032;-75
2022/07/19 09:32:04;;;;;;;9.80;4.50;;;29.80;75.40;;;;;;5089680;28;20070;-75
2022/07/19 09:34:41;;;;;;;10.93;4.13;;;29.90;75.60;;;;;;5087087;28;20387;-74
2022/07/19 09:37:19;;;;;;;8.13;4.30;;;30.00;74.90;;;;;;5086084;28;20390;-74
2022/07/19 09:39:47;;;;;;;4.43;3.55;;;30.00;74.80;;;;;;5087027;28;20036;-74
2022/07/19 09:42:36;;;;;;;7.93;3.03;;;30.10;74.40;;;;;;5086255;28;20123;-75
2022/07/19 09:45:05;;;;;;;5.38;3.67;;;30.20;74.10;;;;;;5090083;28;20545;-73
2022/07/19 09:47:39;;;;;;;5.88;3.45;;;30.30;74.10;;;;;;5090293;28;20016;-73
2022/07/19 09:50:12;;;;;;;3.13;2.75;;;30.40;74.00;;;;;;5080083;28;20028;-74
2022/07/19 09:52:42;;;;;;;6.05;2.80;;;30.50;73.30;;;;;;5087146;28;20023;-75
2022/07/19 09:55:09;;;;;;;;;;;30.60;73.40;;;;;;5082012;28;20028;-74
2022/07/19 09:57:40;;;;;;;5.63;2.78;;;30.70;72.60;;;;;;5075734;28;19912;-75
2022/07/19 10:00:07;;;;;;;8.32;3.17;;;30.80;72.80;;;;;;5074080;28;20093;-75
2022/07/19 10:02:38;;;;;;;10.85;3.03;;;30.80;72.20;;;;;;5082873;28;20039;-75
2022/07/19 10:05:05;;;;;;;5.28;3.03;;;30.90;72.50;;;;;;5082173;28;20041;-74
2022/07/19 10:07:34;;;;;;;6.82;2.72;;;30.90;72.50;;;;;;5078292;28;20150;-74
2022/07/19 10:10:05;;;;;;;11.47;3.33;;;31.00;72.10;;;;;;5075760;28;20101;-74
2022/07/19 10:12:32;;;;;;;5.95;2.92;;;31.10;71.60;;;;;;5073503;28;20151;-74
2022/07/19 10:14:57;;;;;;;8.90;2.78;;;31.20;71.40;;;;;;5071609;28;20017;-75
2022/07/19 10:17:45;;;;;;;11.85;2.75;;;31.30;71.20;;;;;;5072976;28;20079;-73
2022/07/19 10:20:18;;;;;;;3.63;2.97;;;31.40;70.80;;;;;;5072533;28;20028;-75
2022/07/19 10:22:46;;;;;;;3.42;3.13;;;31.50;70.90;;;;;;5072930;28;20050;-75
2022/07/19 10:25:15;;;;;;;3.53;2.83;;;31.60;70.80;;;;;;5071867;28;20032;-74
2022/07/19 10:27:44;;;;;;;6.55;3.17;;;31.60;71.00;;;;;;5072673;28;20031;-75
2022/07/19 10:30:12;;;;;;;4.63;2.53;;;31.60;71.10;;;;;;5073401;28;20032;-76
2022/07/19 10:32:40;;;;;;;7.18;2.90;;;31.70;70.40;;;;;;5072750;28;20020;-75
2022/07/19 10:35:16;;;;;;;6.00;2.55;;;31.70;70.20;;;;;;5073685;28;20103;-77
2022/07/19 10:37:50;;;;;;;18.77;3.15;;;31.90;70.40;;;;;;5074582;28;20029;-77
2022/07/19 10:40:46;;;;;;;4.38;3.03;;;32.00;69.60;;;;;;5073417;28;20052;-76
2022/07/19 10:43:13;;;;;;;9.77;2.85;;;32.10;69.80;;;;;;5083514;28;20035;-77
2022/07/19 10:45:41;;;;;;;9.20;2.90;;;32.20;70.10;;;;;;5071758;28;20028;-77
2022/07/19 10:48:09;;;;;;;14.35;3.58;;;32.40;69.00;;;;;;5074764;28;20026;-76
2022/07/19 10:50:47;;;;;;;6.85;2.97;;;32.40;68.70;;;;;;5071919;28;20013;-76
2022/07/19 10:53:40;;;;;;;5.65;2.42;;;32.60;69.50;;;;;;5071521;28;20021;-78
2022/07/19 10:56:24;;;;;;;9.32;2.63;;;32.70;68.30;;;;;;5071836;28;20345;-76
2022/07/19 10:59:07;;;;;;;4.93;2.78;;;32.80;64.20;;;;;;5068813;28;20150;-76
2022/07/19 11:01:34;;;;;;;5.22;2.58;;;32.90;65.60;;;;;;5069753;28;20067;-75
2022/07/19 11:04:26;;;;;;;6.20;2.67;;;33.00;66.50;;;;;;5065032;28;20069;-74
2022/07/19 11:07:16;;;;;;;3.65;2.50;;;33.10;64.50;;;;;;5072779;28;20024;-76
2022/07/19 11:09:52;;;;;;;6.60;2.38;;;33.20;63.60;;;;;;5068266;28;20055;-77
2022/07/19 11:12:34;;;;;;;7.47;2.58;;;33.30;64.60;;;;;;5070768;28;20048;-75
2022/07/19 11:15:03;;;;;;;4.80;2.80;;;33.40;65.60;;;;;;5072554;28;20059;-76
2022/07/19 11:17:28;;;;;;;9.27;2.60;;;33.50;64.90;;;;;;5071152;28;20468;-76
2022/07/19 11:20:12;;;;;;;5.95;2.92;;;33.60;64.10;;;;;;5070541;28;20044;-75
2022/07/19 11:22:40;;;;;;;5.10;2.70;;;33.70;64.80;;;;;;5074805;28;20043;-75
2022/07/19 11:25:07;;;;;;;8.20;3.67;;;33.80;63.90;;;;;;5071445;28;20032;-74
2022/07/19 11:27:33;;;;;;;9.82;3.30;;;33.80;63.50;;;;;;5078640;28;20051;-76
2022/07/19 11:30:02;;;;;;;11.90;3.60;;;34.00;64.10;;;;;;5069718;28;20056;-76
2022/07/19 11:32:28;;;;;;;4.57;2.97;;;34.00;65.00;;;;;;5073137;28;20100;-78
2022/07/19 11:35:05;;;;;;;6.47;3.08;;;34.00;64.90;;;;;;5068719;28;20024;-75
2022/07/19 11:37:34;;;;;;;3.03;2.72;;;34.00;64.40;;;;;;5070384;28;20020;-76
2022/07/19 11:40:00;;;;;;;6.15;3.40;;;34.00;64.80;;;;;;5070071;28;20043;-76
2022/07/19 11:42:30;;;;;;;5.95;3.17;;;34.10;64.30;;;;;;5072144;28;20107;-77
2022/07/19 11:44:56;;;;;;;6.20;3.15;;;34.30;64.30;;;;;;5074669;28;20444;-75
2022/07/19 11:47:22;;;;;;;5.70;3.33;;;34.30;64.20;;;;;;5088036;28;20112;-77
2022/07/19 11:49:47;;;;;;;5.95;2.97;;;34.30;64.10;;;;;;5087526;28;20114;-75
2022/07/19 11:52:13;;;;;;;11.05;3.65;;;34.40;63.60;;;;;;5087308;28;20479;-75
2022/07/19 11:54:39;;;;;;;6.40;3.72;;;34.50;64.10;;;;;;5071757;28;20472;-77
2022/07/19 11:57:05;;;;;;;3.92;3.05;;;34.40;64.70;;;;;;5085279;28;20035;-77
2022/07/19 11:59:30;;;;;;;6.55;3.65;;;34.50;64.60;;;;;;5087654;28;20488;-76
2022/07/19 12:01:59;;;;;;;8.18;2.97;;;34.50;63.60;;;;;;5091778;28;20463;-77
2022/07/19 12:04:24;;;;;;;4.82;3.42;;;34.70;62.60;;;;;;5078301;28;20434;-77
2022/07/19 12:06:52;;;;;;;4.75;3.35;;;34.80;62.30;;;;;;5091292;28;20012;-78
2022/07/19 12:09:28;;;;;;;5.85;3.50;;;34.80;61.40;;;;;;5078317;28;20044;-76
2022/07/19 12:11:57;;;;;;;3.45;2.65;;;34.90;62.60;;;;;;5091125;28;20200;-77
2022/07/19 12:14:28;;;;;;;5.25;3.47;;;35.00;61.60;;;;;;5081214;28;20112;-76
2022/07/19 12:17:10;;;;;;;3.15;2.80;;;35.10;61.20;;;;;;5089926;28;20027;-77
2022/07/19 12:19:36;;;;;;;4.85;2.70;;;35.20;61.80;;;;;;5091784;28;20036;-76
2022/07/19 12:22:02;;;;;;;4.32;2.95;;;35.30;61.00;;;;;;5100570;28;20050;-75
2022/07/19 12:24:29;;;;;;;6.30;3.10;;;35.40;60.20;;;;;;5081706;28;20044;-77
2022/07/19 12:27:06;;;;;;;8.70;3.40;;;35.50;59.80;;;;;;5074733;28;20028;-77
2022/07/19 12:29:52;;;;;;;5.88;3.65;;;35.60;59.90;;;;;;5073333;28;20439;-77
2022/07/19 12:32:29;;;;;;;9.38;2.95;;;35.70;60.70;;;;;;5074345;28;20499;-76
2022/07/19 12:35:08;;;;;;;7.30;3.47;;;35.80;60.20;;;;;;5071097;28;20066;-77
2022/07/19 12:37:41;;;;;;;6.43;2.67;;;35.90;59.60;;;;;;5077275;28;20024;-77
2022/07/19 12:40:21;;;;;;;7.15;2.85;;;36.00;59.60;;;;;;5071603;28;20032;-76
2022/07/19 12:42:52;;;;;;;5.97;3.00;;;36.00;57.70;;;;;;5075300;28;20020;-76
2022/07/19 12:45:20;;;;;;;7.38;2.67;;;36.10;57.40;;;;;;5079935;28;20388;-77
2022/07/19 12:47:47;;;;;;;6.45;2.75;;;36.10;57.40;;;;;;5082404;28;20462;-76